Time;durP1;ratioP1;P1;durP2;ratioP2;P2;SDS_P1;SDS_P2;PMS_P1;PMS_P2;Temp;Humidity;BMP_temperature;BMP_pressure;BME280_temperature;BME280_humidity;BME280_pressure;Samples;Min_cycle;Max_cycle;Signal;HPM_P1;HPM_P2
2022/06/11 00:00:34;;;;;;;0.70;0.60;;;14.90;99.90;;;;;;4962076;28;20564;-84
2022/06/11 00:03:01;;;;;;;1.70;1.03;;;14.90;99.90;;;;;;4967169;28;20741;-84
2022/06/11 00:05:28;;;;;;;1.00;0.90;;;14.90;99.90;;;;;;4962751;28;20873;-86
2022/06/11 00:07:57;;;;;;;1.00;0.90;;;14.80;99.90;;;;;;4961488;28;20530;-84
2022/06/11 00:10:24;;;;;;;1.40;1.30;;;14.80;99.90;;;;;;4964466;28;20475;-84
2022/06/11 00:12:52;;;;;;;0.70;0.60;;;14.80;99.90;;;;;;4962539;28;21025;-86
2022/06/11 00:15:20;;;;;;;0.90;0.90;;;14.80;99.90;;;;;;4963136;28;20509;-84
2022/06/11 00:17:47;;;;;;;2.40;0.93;;;14.80;99.90;;;;;;4962081;28;20474;-85
2022/06/11 00:20:14;;;;;;;0.90;0.70;;;14.80;99.90;;;;;;4963115;28;20500;-84
2022/06/11 00:22:42;;;;;;;0.77;0.77;;;14.90;99.90;;;;;;4962315;28;20554;-85
2022/06/11 00:25:10;;;;;;;1.43;1.33;;;14.80;99.90;;;;;;4961624;28;20447;-85
2022/06/11 00:27:37;;;;;;;0.70;0.70;;;14.80;99.90;;;;;;4962067;28;20484;-85
2022/06/11 00:30:05;;;;;;;0.80;0.70;;;14.80;99.90;;;;;;4963096;28;20453;-85
2022/06/11 00:32:34;;;;;;;1.77;1.30;;;14.80;99.90;;;;;;4963075;28;20469;-85
2022/06/11 00:35:03;;;;;;;1.40;1.20;;;14.70;99.90;;;;;;4962028;28;21326;-84
2022/06/11 00:37:30;;;;;;;1.03;1.03;;;14.80;99.90;;;;;;4961216;28;20980;-86
2022/06/11 00:39:57;;;;;;;1.23;1.13;;;14.70;99.90;;;;;;4964972;28;21024;-86
2022/06/11 00:42:28;;;;;;;7.90;1.17;;;14.70;99.90;;;;;;4962527;28;20516;-84
2022/06/11 00:45:15;;;;;;;1.03;0.70;;;14.70;99.90;;;;;;4963992;28;20456;-84
2022/06/11 00:47:47;;;;;;;3.33;1.20;;;14.70;99.90;;;;;;4960104;28;20515;-84
2022/06/11 00:50:20;;;;;;;1.00;0.77;;;14.70;99.90;;;;;;4963190;28;20872;-84
2022/06/11 00:52:48;;;;;;;1.00;0.80;;;14.60;99.90;;;;;;4960498;28;20572;-86
2022/06/11 00:55:19;;;;;;;1.13;1.03;;;14.60;99.90;;;;;;4962294;28;20528;-85
2022/06/11 00:57:56;;;;;;;1.13;1.03;;;14.50;99.90;;;;;;4963273;28;20510;-85
2022/06/11 01:00:26;;;;;;;1.63;1.53;;;14.40;99.90;;;;;;4963932;28;20944;-84
2022/06/11 01:02:55;;;;;;;1.93;1.20;;;14.30;99.90;;;;;;4961570;28;20608;-84
2022/06/11 01:05:26;;;;;;;1.03;1.03;;;14.30;99.90;;;;;;4961931;28;20470;-84
2022/06/11 01:08:31;;;;;;;0.83;0.80;;;14.30;99.90;;;;;;4960245;28;20539;-84
2022/06/11 01:11:25;;;;;;;1.30;1.20;;;14.40;99.90;;;;;;4960861;28;21644;-85
2022/06/11 01:14:04;;;;;;;1.20;0.80;;;14.30;99.90;;;;;;4963867;28;20524;-85
2022/06/11 01:16:41;;;;;;;1.30;1.20;;;14.30;99.90;;;;;;4961955;28;21061;-85
2022/06/11 01:19:57;;;;;;;1.73;1.63;;;14.20;99.90;;;;;;4962903;28;20462;-84
2022/06/11 01:22:47;;;;;;;1.30;1.17;;;14.20;99.90;;;;;;4960415;28;20466;-85
2022/06/11 01:25:28;;;;;;;1.50;0.70;;;14.20;99.90;;;;;;4972447;28;20521;-85
2022/06/11 01:28:08;;;;;;;1.13;1.13;;;14.10;99.90;;;;;;4973026;28;20892;-85
2022/06/11 01:30:43;;;;;;;1.77;0.80;;;14.10;99.90;;;;;;4969631;28;20463;-84
2022/06/11 01:33:15;;;;;;;1.70;1.00;;;14.00;99.90;;;;;;4963983;28;20501;-85
2022/06/11 01:35:55;;;;;;;2.73;1.03;;;14.00;99.90;;;;;;4961628;28;20475;-85
2022/06/11 01:38:30;;;;;;;1.10;0.97;;;14.00;99.90;;;;;;4960850;28;20890;-86
2022/06/11 01:41:07;;;;;;;0.90;0.77;;;14.00;99.90;;;;;;4963122;28;20486;-85
2022/06/11 01:43:37;;;;;;;0.80;0.80;;;14.10;99.90;;;;;;4958120;28;20496;-84
2022/06/11 01:46:08;;;;;;;1.90;1.70;;;14.10;99.90;;;;;;4962241;28;20524;-85
2022/06/11 01:48:35;;;;;;;4.83;0.90;;;14.10;99.90;;;;;;4957093;28;20901;-84
2022/06/11 01:51:19;;;;;;;4.27;0.83;;;14.10;99.90;;;;;;4957933;28;20559;-85
2022/06/11 01:54:07;;;;;;;1.10;1.00;;;14.10;99.90;;;;;;4960014;28;20472;-85
2022/06/11 01:56:58;;;;;;;0.80;0.70;;;14.00;99.90;;;;;;4960618;28;20914;-84
2022/06/11 01:59:45;;;;;;;2.90;1.53;;;14.00;99.90;;;;;;4958403;28;21192;-84
2022/06/11 02:02:37;;;;;;;1.90;0.80;;;13.90;99.90;;;;;;4961870;28;21006;-84
2022/06/11 02:05:09;;;;;;;1.07;0.90;;;13.90;99.90;;;;;;4959891;28;20501;-85
2022/06/11 02:07:47;;;;;;;1.37;1.00;;;13.90;99.90;;;;;;4957629;28;21255;-85
2022/06/11 02:10:20;;;;;;;0.90;0.90;;;13.90;99.90;;;;;;4960682;28;20473;-86
2022/06/11 02:12:51;;;;;;;0.80;0.60;;;13.80;99.90;;;;;;4959810;28;20478;-86
2022/06/11 02:15:25;;;;;;;0.80;0.80;;;13.80;99.90;;;;;;4959997;28;20519;-85
2022/06/11 02:17:58;;;;;;;1.17;1.07;;;13.80;99.90;;;;;;4958412;28;20966;-86
2022/06/11 02:20:29;;;;;;;0.70;0.70;;;13.70;99.90;;;;;;4961373;28;21035;-86
2022/06/11 02:23:00;;;;;;;0.97;0.70;;;13.70;99.90;;;;;;4962250;28;20546;-84
2022/06/11 02:25:32;;;;;;;0.97;0.90;;;13.70;99.90;;;;;;4960028;28;20883;-85
2022/06/11 02:28:01;;;;;;;1.57;1.00;;;13.70;99.90;;;;;;4957408;28;20482;-84
2022/06/11 02:30:31;;;;;;;1.40;0.93;;;13.70;99.90;;;;;;4962088;28;20477;-84
2022/06/11 02:33:01;;;;;;;2.10;1.40;;;13.80;99.90;;;;;;4959351;28;20472;-84
2022/06/11 02:35:36;;;;;;;1.00;1.00;;;13.80;99.90;;;;;;4958618;28;20528;-85
2022/06/11 02:38:06;;;;;;;1.27;1.17;;;13.80;99.90;;;;;;4960132;28;20473;-84
2022/06/11 02:40:37;;;;;;;1.37;0.80;;;13.90;99.90;;;;;;4961557;28;20505;-85
2022/06/11 02:43:05;;;;;;;0.80;0.80;;;13.80;99.90;;;;;;4961398;28;20603;-86
2022/06/11 02:45:32;;;;;;;1.40;0.97;;;13.80;99.90;;;;;;4960546;28;20467;-84
2022/06/11 02:48:00;;;;;;;0.70;0.60;;;13.80;99.90;;;;;;4959375;28;20546;-84
2022/06/11 02:50:30;;;;;;;1.20;1.10;;;13.70;99.90;;;;;;4961749;28;20558;-85
2022/06/11 02:52:58;;;;;;;1.37;1.27;;;13.80;99.90;;;;;;4961760;28;20532;-84
2022/06/11 02:55:26;;;;;;;2.90;1.30;;;13.80;99.90;;;;;;4960460;28;20461;-84
2022/06/11 02:57:53;;;;;;;1.53;1.33;;;13.70;99.90;;;;;;4957743;28;20488;-85
2022/06/11 03:00:24;;;;;;;1.30;0.80;;;13.60;99.90;;;;;;4959151;28;20963;-84
2022/06/11 03:02:51;;;;;;;1.50;1.20;;;13.50;99.90;;;;;;4959857;28;21145;-85
2022/06/11 03:05:24;;;;;;;2.40;1.23;;;13.40;99.90;;;;;;4962130;28;20520;-84
2022/06/11 03:07:51;;;;;;;1.43;1.00;;;13.30;99.90;;;;;;4959641;28;20897;-85
2022/06/11 03:10:21;;;;;;;1.40;1.30;;;13.30;99.90;;;;;;4958794;28;20532;-84
2022/06/11 03:12:48;;;;;;;1.07;0.93;;;13.30;99.90;;;;;;4956915;28;20468;-85
2022/06/11 03:15:16;;;;;;;0.83;0.80;;;13.30;99.90;;;;;;4960252;28;20530;-84
2022/06/11 03:17:44;;;;;;;1.83;1.03;;;13.40;99.90;;;;;;4955347;28;21047;-84
2022/06/11 03:20:13;;;;;;;1.37;1.27;;;13.50;99.90;;;;;;4963278;28;20469;-84
2022/06/11 03:22:42;;;;;;;2.30;1.00;;;13.50;99.90;;;;;;4960409;28;20484;-85
2022/06/11 03:25:10;;;;;;;0.90;0.70;;;13.50;99.90;;;;;;4959825;28;20469;-84
2022/06/11 03:27:39;;;;;;;1.10;1.00;;;13.50;99.90;;;;;;4957293;28;20519;-84
2022/06/11 03:30:07;;;;;;;1.73;1.63;;;13.60;99.90;;;;;;4960032;28;20470;-84
2022/06/11 03:32:34;;;;;;;1.03;0.90;;;13.60;99.90;;;;;;4959658;28;20474;-84
2022/06/11 03:35:02;;;;;;;2.53;1.23;;;13.50;99.90;;;;;;4959296;28;20473;-87
2022/06/11 03:37:29;;;;;;;0.87;0.70;;;13.50;99.90;;;;;;4957844;28;21018;-86
2022/06/11 03:39:57;;;;;;;2.57;1.60;;;13.60;99.90;;;;;;4959356;28;20467;-84
2022/06/11 03:42:24;;;;;;;1.03;1.00;;;13.60;99.90;;;;;;4960477;28;20537;-86
2022/06/11 03:44:52;;;;;;;1.87;1.60;;;13.70;99.90;;;;;;4958846;28;20539;-84
2022/06/11 03:47:19;;;;;;;4.03;1.07;;;13.90;99.90;;;;;;4960796;28;20500;-85
2022/06/11 03:49:46;;;;;;;1.20;1.10;;;14.00;99.90;;;;;;4963357;28;20465;-84
2022/06/11 03:52:13;;;;;;;1.90;0.77;;;14.10;99.90;;;;;;4960614;28;20564;-85
2022/06/11 03:54:40;;;;;;;0.70;0.70;;;14.20;99.90;;;;;;4962870;28;20523;-82
2022/06/11 03:57:09;;;;;;;4.77;1.20;;;14.40;99.90;;;;;;4962349;28;20861;-85
2022/06/11 03:59:36;;;;;;;0.87;0.80;;;14.40;99.90;;;;;;4966540;28;20601;-84
2022/06/11 04:02:03;;;;;;;2.03;0.83;;;14.50;99.90;;;;;;4967961;28;20977;-85
2022/06/11 04:04:31;;;;;;;1.93;0.80;;;14.60;99.90;;;;;;4965841;28;20950;-85
2022/06/11 04:07:00;;;;;;;0.73;0.73;;;14.70;99.90;;;;;;4961234;28;20577;-85
2022/06/11 04:09:30;;;;;;;0.80;0.60;;;14.80;99.90;;;;;;4959994;28;20467;-85
2022/06/11 04:11:58;;;;;;;2.10;0.90;;;14.80;99.90;;;;;;4964415;28;20520;-84
2022/06/11 04:14:26;;;;;;;0.87;0.50;;;14.80;99.90;;;;;;4962886;28;20582;-85
2022/06/11 04:16:57;;;;;;;0.97;0.87;;;14.80;99.90;;;;;;4964606;28;20553;-85
2022/06/11 04:19:27;;;;;;;0.77;0.60;;;15.00;99.90;;;;;;4962793;28;20827;-85
2022/06/11 04:21:56;;;;;;;1.70;1.10;;;15.00;99.90;;;;;;4963374;28;20476;-85
2022/06/11 04:24:23;;;;;;;0.80;0.60;;;15.10;99.90;;;;;;4958224;28;20478;-86
2022/06/11 04:26:53;;;;;;;1.17;0.67;;;15.00;99.90;;;;;;4964879;28;20476;-85
2022/06/11 04:29:24;;;;;;;1.33;1.03;;;15.00;99.90;;;;;;4963787;28;20485;-86
2022/06/11 04:31:55;;;;;;;3.70;0.90;;;15.10;99.90;;;;;;4964550;28;20814;-86
2022/06/11 04:34:23;;;;;;;2.23;0.70;;;15.00;99.90;;;;;;4961303;28;20833;-85
2022/06/11 04:36:51;;;;;;;1.23;0.73;;;15.00;99.90;;;;;;4962039;28;21026;-86
2022/06/11 04:39:21;;;;;;;1.00;0.83;;;15.00;99.90;;;;;;4961914;28;20470;-84
2022/06/11 04:41:49;;;;;;;1.07;0.90;;;15.00;99.90;;;;;;4962698;28;20454;-86
2022/06/11 04:44:16;;;;;;;1.10;1.00;;;15.00;99.90;;;;;;4963211;28;20512;-85
2022/06/11 04:46:44;;;;;;;0.80;0.77;;;15.00;99.90;;;;;;4962815;28;20547;-83
2022/06/11 04:49:13;;;;;;;0.70;0.50;;;15.10;99.90;;;;;;4964726;28;20476;-86
2022/06/11 04:51:41;;;;;;;1.10;0.73;;;15.00;99.90;;;;;;4962043;28;20465;-90
2022/06/11 04:54:08;;;;;;;1.00;0.80;;;15.20;99.90;;;;;;4961121;28;20468;-85
2022/06/11 04:56:35;;;;;;;0.60;0.50;;;15.30;99.90;;;;;;4962090;28;20459;-85
2022/06/11 04:59:02;;;;;;;0.83;0.70;;;15.30;99.90;;;;;;4961419;28;21086;-85
2022/06/11 05:01:30;;;;;;;0.73;0.73;;;15.50;99.90;;;;;;4973634;28;20521;-85
2022/06/11 05:03:57;;;;;;;0.70;0.70;;;15.50;99.90;;;;;;4976480;28;20868;-84
2022/06/11 05:06:31;;;;;;;1.17;1.10;;;15.80;99.90;;;;;;4968000;28;20476;-84
2022/06/11 05:08:58;;;;;;;0.97;0.90;;;16.10;99.90;;;;;;4966823;28;20469;-85
2022/06/11 05:11:26;;;;;;;0.70;0.70;;;16.40;99.90;;;;;;4964254;28;20495;-84
2022/06/11 05:13:53;;;;;;;0.70;0.70;;;16.50;99.90;;;;;;4960247;28;20465;-84
2022/06/11 05:16:22;;;;;;;1.07;0.70;;;16.90;99.90;;;;;;4958351;28;21011;-84
2022/06/11 05:18:49;;;;;;;1.00;0.70;;;17.20;99.90;;;;;;4963881;28;20568;-85
2022/06/11 05:21:16;;;;;;;1.90;1.20;;;17.40;99.90;;;;;;4960644;28;20546;-84
2022/06/11 05:23:45;;;;;;;0.80;0.80;;;17.50;99.90;;;;;;4963079;28;20977;-83
2022/06/11 05:26:14;;;;;;;0.70;0.70;;;17.60;99.90;;;;;;4962083;28;20496;-84
2022/06/11 05:28:42;;;;;;;3.37;0.80;;;17.70;99.90;;;;;;4961339;28;20519;-85
2022/06/11 05:31:09;;;;;;;1.73;1.23;;;17.70;99.90;;;;;;4961589;28;20553;-81
2022/06/11 05:33:37;;;;;;;0.63;0.63;;;17.50;99.90;;;;;;4958664;28;20986;-82
2022/06/11 05:36:05;;;;;;;1.67;1.03;;;17.50;99.90;;;;;;4962514;28;20648;-81
2022/06/11 05:38:32;;;;;;;0.87;0.70;;;17.70;99.90;;;;;;4960612;28;20465;-84
2022/06/11 05:41:01;;;;;;;1.00;0.80;;;17.90;99.90;;;;;;4959992;28;20484;-82
2022/06/11 05:43:28;;;;;;;0.80;0.80;;;17.90;99.90;;;;;;4961987;28;20995;-82
2022/06/11 05:46:00;;;;;;;1.93;0.90;;;18.10;99.90;;;;;;4960736;28;20476;-93
2022/06/11 05:48:35;;;;;;;0.83;0.83;;;18.10;99.90;;;;;;4961329;28;20487;-91
2022/06/11 05:51:06;;;;;;;4.43;1.07;;;17.70;99.90;;;;;;4961319;28;21113;-85
2022/06/11 05:53:38;;;;;;;1.27;1.17;;;17.70;99.90;;;;;;4961620;28;20460;-84
2022/06/11 05:56:08;;;;;;;0.53;0.53;;;17.70;99.90;;;;;;4960310;28;21014;-84
2022/06/11 05:58:40;;;;;;;1.10;0.80;;;17.70;99.90;;;;;;4958165;28;20488;-83
2022/06/11 06:01:08;;;;;;;1.10;0.93;;;17.80;99.90;;;;;;4960776;28;20492;-83
2022/06/11 06:03:36;;;;;;;0.90;0.70;;;17.70;99.90;;;;;;4962313;28;20470;-83
2022/06/11 06:06:04;;;;;;;0.80;0.80;;;17.90;99.90;;;;;;4960615;28;20468;-82
2022/06/11 06:08:31;;;;;;;1.53;0.93;;;17.70;99.90;;;;;;4963235;28;20491;-82
2022/06/11 06:10:57;;;;;;;1.03;0.77;;;17.50;99.90;;;;;;4957579;28;20522;-84
2022/06/11 06:16:13;;;;;;;0.60;0.60;;;17.70;99.90;;;;;;4952916;28;21032;-84
2022/06/11 06:18:40;;;;;;;0.77;0.77;;;17.80;99.90;;;;;;4958977;28;20968;-85
2022/06/11 06:21:07;;;;;;;0.83;0.83;;;18.00;99.90;;;;;;4957989;28;20464;-83
2022/06/11 06:23:35;;;;;;;0.90;0.70;;;17.90;99.90;;;;;;4957193;28;20539;-87
2022/06/11 06:26:03;;;;;;;1.63;0.90;;;18.00;99.90;;;;;;4960597;28;20469;-86
2022/06/11 06:28:42;;;;;;;1.03;0.70;;;18.10;99.90;;;;;;4951083;28;21039;-94
2022/06/11 06:31:09;;;;;;;1.43;0.83;;;18.00;99.90;;;;;;4954289;28;20472;-86
2022/06/11 06:33:37;;;;;;;0.60;0.60;;;18.40;99.90;;;;;;4952508;28;20991;-87
2022/06/11 06:36:06;;;;;;;0.80;0.77;;;18.70;99.90;;;;;;4955133;28;20548;-86
2022/06/11 06:38:34;;;;;;;1.10;1.00;;;18.80;99.90;;;;;;4954548;28;20472;-88
2022/06/11 06:41:01;;;;;;;2.00;1.13;;;18.80;99.90;;;;;;4954514;28;20472;-85
2022/06/11 06:43:28;;;;;;;1.10;1.00;;;19.00;99.90;;;;;;4960354;28;20590;-86
2022/06/11 06:45:56;;;;;;;1.60;0.77;;;19.20;99.90;;;;;;4956766;28;21143;-86
2022/06/11 06:48:24;;;;;;;1.17;0.77;;;19.10;99.90;;;;;;4957643;28;20498;-86
2022/06/11 06:50:52;;;;;;;0.80;0.80;;;19.40;99.90;;;;;;4955534;28;21006;-88
2022/06/11 06:53:19;;;;;;;1.00;0.90;;;19.50;99.90;;;;;;4953411;28;20463;-86
2022/06/11 06:55:48;;;;;;;1.90;0.80;;;19.60;99.90;;;;;;4961658;28;20560;-87
2022/06/11 06:58:15;;;;;;;7.50;0.87;;;19.60;99.90;;;;;;4960653;28;20493;-86
2022/06/11 07:00:43;;;;;;;3.03;0.90;;;19.60;99.90;;;;;;4955454;28;20579;-87
2022/06/11 07:03:12;;;;;;;0.97;0.70;;;19.80;99.90;;;;;;4960143;28;20465;-87
2022/06/11 07:05:40;;;;;;;0.80;0.80;;;19.90;99.90;;;;;;4955174;28;20476;-85
2022/06/11 07:08:07;;;;;;;1.23;0.90;;;20.00;99.90;;;;;;4959153;28;20520;-86
2022/06/11 07:10:35;;;;;;;0.83;0.80;;;20.00;99.90;;;;;;4953371;28;20472;-88
2022/06/11 07:13:03;;;;;;;2.40;1.20;;;20.10;99.90;;;;;;4959546;28;20494;-85
2022/06/11 07:15:34;;;;;;;0.93;0.80;;;20.20;99.90;;;;;;4961188;28;20521;-86
2022/06/11 07:18:05;;;;;;;1.63;1.30;;;20.20;99.90;;;;;;4957851;28;20477;-85
2022/06/11 07:20:36;;;;;;;0.97;0.90;;;20.10;99.90;;;;;;4957808;28;21074;-86
2022/06/11 07:23:08;;;;;;;0.80;0.70;;;20.20;99.90;;;;;;4960584;28;20830;-85
2022/06/11 07:25:40;;;;;;;3.27;1.27;;;20.40;99.90;;;;;;4963055;28;20551;-86
2022/06/11 07:28:15;;;;;;;0.80;0.70;;;20.80;99.90;;;;;;4959974;28;20531;-88
2022/06/11 07:30:44;;;;;;;4.17;1.20;;;20.90;99.90;;;;;;4960988;28;20473;-86
2022/06/11 07:33:15;;;;;;;1.27;0.87;;;21.00;99.90;;;;;;4962504;28;20467;-85
2022/06/11 07:35:43;;;;;;;1.20;1.10;;;21.10;99.90;;;;;;4959992;28;20474;-85
2022/06/11 07:38:13;;;;;;;2.30;0.90;;;21.30;99.90;;;;;;4964396;28;20447;-86
2022/06/11 07:40:41;;;;;;;0.90;0.77;;;21.60;99.90;;;;;;4964586;28;20767;-85
2022/06/11 07:43:09;;;;;;;1.43;0.93;;;21.90;99.90;;;;;;4965129;28;20595;-85
2022/06/11 07:45:37;;;;;;;1.10;1.03;;;21.70;99.90;;;;;;4961605;28;20473;-85
2022/06/11 07:48:04;;;;;;;1.80;1.10;;;21.60;99.90;;;;;;4963312;28;20580;-85
2022/06/11 07:50:34;;;;;;;0.83;0.83;;;21.80;99.90;;;;;;4956897;28;20965;-85
2022/06/11 07:53:05;;;;;;;1.33;1.10;;;21.60;99.90;;;;;;4963696;28;20547;-85
2022/06/11 07:55:32;;;;;;;1.10;1.00;;;21.70;99.90;;;;;;4963472;28;20479;-85
2022/06/11 07:58:00;;;;;;;1.17;1.00;;;21.80;99.90;;;;;;4961146;28;21047;-85
2022/06/11 08:00:30;;;;;;;1.73;1.63;;;21.80;99.90;;;;;;4964046;28;20459;-85
2022/06/11 08:02:57;;;;;;;2.03;1.40;;;21.80;99.90;;;;;;4972873;28;20460;-84
2022/06/11 08:05:24;;;;;;;2.20;2.10;;;21.70;99.90;;;;;;4973739;28;20472;-85
2022/06/11 08:07:52;;;;;;;1.10;0.97;;;21.90;99.90;;;;;;4971109;28;20513;-87
2022/06/11 08:10:22;;;;;;;0.83;0.80;;;21.70;99.90;;;;;;4966670;28;20677;-86
2022/06/11 08:12:49;;;;;;;1.20;0.90;;;21.90;99.90;;;;;;4962550;28;20503;-85
2022/06/11 08:15:17;;;;;;;1.20;1.10;;;21.70;99.90;;;;;;4958364;28;20480;-85
2022/06/11 08:17:45;;;;;;;2.20;1.00;;;21.60;99.90;;;;;;4953995;28;20475;-88
2022/06/11 08:20:15;;;;;;;3.77;1.20;;;21.60;99.00;;;;;;4954933;28;21188;-85
2022/06/11 08:22:42;;;;;;;1.47;1.10;;;21.50;99.90;;;;;;4959290;28;20464;-85
2022/06/11 08:25:09;;;;;;;1.80;1.17;;;21.60;99.90;;;;;;4962143;28;20581;-85
2022/06/11 08:27:37;;;;;;;2.47;1.60;;;21.70;98.90;;;;;;4964097;28;20496;-85
2022/06/11 08:30:06;;;;;;;3.60;1.47;;;21.90;99.90;;;;;;4957923;28;21553;-85
2022/06/11 08:32:33;;;;;;;1.23;1.13;;;22.20;99.90;;;;;;4962210;28;20510;-85
2022/06/11 08:35:00;;;;;;;1.23;0.87;;;22.10;99.50;;;;;;4959662;28;20472;-86
2022/06/11 08:37:27;;;;;;;2.40;1.00;;;22.20;99.90;;;;;;4961511;28;20894;-86
2022/06/11 08:39:54;;;;;;;0.93;0.93;;;22.10;99.00;;;;;;4962145;28;20476;-86
2022/06/11 08:42:33;;;;;;;1.73;1.13;;;22.00;97.70;;;;;;4963181;28;20472;-85
2022/06/11 08:45:05;;;;;;;0.90;0.70;;;22.20;99.90;;;;;;4960587;28;20469;-86
2022/06/11 08:47:41;;;;;;;1.40;1.00;;;21.90;99.10;;;;;;4961749;28;20467;-86
2022/06/11 08:50:13;;;;;;;1.00;0.90;;;22.00;98.00;;;;;;4961926;28;20460;-86
2022/06/11 08:52:40;;;;;;;0.93;0.80;;;22.40;99.90;;;;;;4963865;28;20473;-86
2022/06/11 08:55:07;;;;;;;3.07;1.30;;;22.30;97.30;;;;;;4962103;28;20475;-86
2022/06/11 08:57:45;;;;;;;1.40;1.30;;;22.40;98.80;;;;;;4959002;28;20879;-86
2022/06/11 09:00:19;;;;;;;0.80;0.80;;;22.60;97.50;;;;;;4963114;28;20463;-89
2022/06/11 09:03:06;;;;;;;3.07;1.00;;;22.70;95.40;;;;;;4962284;28;20579;-84
2022/06/11 09:06:08;;;;;;;2.27;1.23;;;22.70;97.00;;;;;;4948623;28;20472;-85
2022/06/11 09:08:48;;;;;;;0.80;0.77;;;22.60;96.30;;;;;;4958408;28;20483;-84
2022/06/11 09:11:28;;;;;;;1.03;0.90;;;22.50;98.20;;;;;;4964488;28;20526;-84
2022/06/11 09:14:28;;;;;;;1.97;1.20;;;22.60;96.90;;;;;;4963254;28;20480;-85
2022/06/11 09:17:19;;;;;;;1.00;0.80;;;22.70;95.80;;;;;;4956795;28;20460;-85
2022/06/11 09:19:59;;;;;;;0.80;0.80;;;22.60;95.50;;;;;;4959502;28;20500;-85
2022/06/11 09:22:43;;;;;;;1.10;1.00;;;22.70;96.50;;;;;;4962134;28;20907;-85
2022/06/11 09:25:22;;;;;;;1.33;1.23;;;22.90;97.10;;;;;;4960742;28;20460;-85
2022/06/11 09:27:57;;;;;;;3.70;0.70;;;22.90;95.50;;;;;;4957730;28;20542;-86
2022/06/11 09:30:34;;;;;;;2.10;0.60;;;23.00;94.50;;;;;;4960545;28;20468;-85
2022/06/11 09:33:07;;;;;;;1.00;0.93;;;23.30;98.00;;;;;;4954379;28;21146;-85
2022/06/11 09:35:46;;;;;;;1.57;1.47;;;23.30;95.60;;;;;;4955121;28;20473;-88
2022/06/11 09:38:23;;;;;;;1.00;0.90;;;23.40;96.20;;;;;;4957968;28;20988;-86
2022/06/11 09:40:57;;;;;;;0.80;0.80;;;23.40;96.50;;;;;;4957054;28;20495;-85
2022/06/11 09:43:35;;;;;;;0.70;0.50;;;22.90;93.00;;;;;;4957166;28;20464;-85
2022/06/11 09:46:10;;;;;;;0.87;0.80;;;23.30;93.10;;;;;;4957729;28;20503;-84
2022/06/11 09:48:52;;;;;;;0.90;0.73;;;23.50;94.20;;;;;;4958774;28;20484;-87
2022/06/11 09:51:28;;;;;;;0.83;0.80;;;23.60;93.40;;;;;;4960889;28;20514;-86
2022/06/11 09:54:20;;;;;;;1.20;1.10;;;23.80;95.40;;;;;;4959739;28;20467;-85
2022/06/11 09:56:54;;;;;;;1.10;1.10;;;23.80;94.60;;;;;;4960778;28;20549;-86
2022/06/11 09:59:31;;;;;;;0.90;0.80;;;24.00;95.30;;;;;;4959398;28;20625;-85
2022/06/11 10:02:03;;;;;;;1.10;0.70;;;23.70;92.10;;;;;;4958372;28;20555;-85
2022/06/11 10:04:36;;;;;;;1.30;1.20;;;23.60;92.50;;;;;;4959879;28;20492;-85
2022/06/11 10:07:08;;;;;;;0.90;0.90;;;23.60;90.50;;;;;;4959814;28;20576;-85
2022/06/11 10:09:41;;;;;;;1.10;0.87;;;23.90;91.30;;;;;;4960900;28;20491;-85
2022/06/11 10:12:18;;;;;;;0.70;0.70;;;23.80;91.20;;;;;;4959086;28;20518;-85
2022/06/11 10:14:50;;;;;;;0.73;0.73;;;23.80;92.20;;;;;;4957674;28;20464;-85
2022/06/11 10:17:23;;;;;;;0.77;0.60;;;24.00;90.20;;;;;;4955845;28;20526;-85
2022/06/11 10:20:00;;;;;;;1.00;0.83;;;23.90;90.30;;;;;;4960631;28;20473;-87
2022/06/11 10:22:32;;;;;;;0.80;0.80;;;24.10;92.90;;;;;;4963830;28;20493;-86
2022/06/11 10:25:10;;;;;;;0.63;0.60;;;24.10;92.30;;;;;;4959912;28;20471;-85
2022/06/11 10:27:41;;;;;;;0.67;0.60;;;24.40;89.30;;;;;;4959178;28;20555;-86
2022/06/11 10:30:19;;;;;;;1.10;1.00;;;24.80;90.20;;;;;;4955939;28;20549;-85
2022/06/11 10:32:50;;;;;;;3.43;0.90;;;24.70;90.60;;;;;;4959308;28;20576;-86
2022/06/11 10:35:22;;;;;;;1.33;1.23;;;24.60;91.60;;;;;;4957654;28;21066;-85
2022/06/11 10:37:57;;;;;;;1.00;0.90;;;24.60;93.50;;;;;;4961901;28;20561;-86
2022/06/11 10:40:30;;;;;;;1.23;1.13;;;24.80;93.00;;;;;;4960023;28;20833;-85
2022/06/11 10:43:04;;;;;;;0.90;0.60;;;24.50;92.50;;;;;;4959890;28;20557;-86
2022/06/11 10:45:32;;;;;;;0.70;0.70;;;24.40;87.90;;;;;;4954865;28;20464;-86
2022/06/11 10:48:02;;;;;;;1.33;0.50;;;24.60;83.30;;;;;;4962813;28;20555;-86
2022/06/11 10:50:34;;;;;;;2.50;0.90;;;24.80;88.30;;;;;;4956381;28;20538;-86
2022/06/11 10:53:08;;;;;;;1.80;0.90;;;24.80;83.50;;;;;;4962840;28;20476;-85
2022/06/11 10:55:40;;;;;;;0.77;0.70;;;25.20;86.40;;;;;;4955999;28;20471;-86
2022/06/11 10:58:14;;;;;;;1.20;1.00;;;25.30;86.40;;;;;;4952015;28;20487;-85
2022/06/11 11:00:50;;;;;;;1.33;0.80;;;25.50;91.20;;;;;;4955126;28;20525;-85
2022/06/11 11:03:24;;;;;;;0.83;0.63;;;25.70;84.10;;;;;;4977294;28;20460;-86
2022/06/11 11:05:59;;;;;;;1.00;0.90;;;25.80;89.70;;;;;;4968929;28;20548;-85
2022/06/11 11:08:26;;;;;;;0.70;0.63;;;26.00;85.40;;;;;;4973743;28;20468;-85
2022/06/11 11:10:55;;;;;;;1.07;1.00;;;25.50;90.10;;;;;;4960666;28;20461;-85
2022/06/11 11:13:28;;;;;;;0.83;0.83;;;25.50;88.50;;;;;;4966592;28;20516;-85
2022/06/11 11:16:06;;;;;;;0.80;0.60;;;25.70;86.10;;;;;;4959806;28;20484;-87
2022/06/11 11:18:41;;;;;;;0.80;0.70;;;25.60;80.20;;;;;;4963517;28;20545;-87
2022/06/11 11:21:18;;;;;;;0.70;0.70;;;25.70;81.50;;;;;;4964548;28;20465;-87
2022/06/11 11:23:49;;;;;;;0.50;0.50;;;26.00;89.10;;;;;;4965376;28;20492;-87
2022/06/11 11:26:35;;;;;;;0.80;0.80;;;25.90;80.10;;;;;;4965377;28;20471;-87
2022/06/11 11:29:08;;;;;;;1.23;1.13;;;26.00;79.00;;;;;;4960454;28;21359;-86
2022/06/11 11:31:43;;;;;;;0.60;0.60;;;25.90;77.10;;;;;;4955978;28;20465;-87
2022/06/11 11:34:17;;;;;;;0.50;0.50;;;25.90;81.70;;;;;;4952988;28;20487;-87
2022/06/11 11:36:46;;;;;;;0.77;0.77;;;25.50;76.20;;;;;;4964430;28;20514;-87
2022/06/11 11:39:23;;;;;;;0.60;0.53;;;26.00;75.30;;;;;;4950582;28;20467;-87
2022/06/11 11:41:54;;;;;;;0.80;0.80;;;26.30;72.80;;;;;;4963560;28;20891;-87
2022/06/11 11:44:24;;;;;;;0.90;0.50;;;26.30;73.50;;;;;;4955607;28;20525;-86
2022/06/11 11:46:53;;;;;;;1.20;0.80;;;26.70;69.80;;;;;;4968744;28;20979;-87
2022/06/11 11:49:24;;;;;;;0.63;0.63;;;26.80;74.80;;;;;;4962089;28;20519;-87
2022/06/11 11:51:55;;;;;;;0.60;0.40;;;26.90;70.00;;;;;;4960749;28;20473;-86
2022/06/11 11:54:27;;;;;;;1.90;0.60;;;26.80;71.00;;;;;;4958573;28;20551;-86
2022/06/11 11:56:58;;;;;;;0.67;0.60;;;26.70;72.50;;;;;;4966540;28;21037;-87
2022/06/11 11:59:29;;;;;;;0.90;0.60;;;27.20;72.60;;;;;;4959034;28;20461;-86
2022/06/11 12:02:14;;;;;;;1.10;0.67;;;27.20;68.10;;;;;;4961159;28;20460;-86
2022/06/11 12:04:53;;;;;;;1.63;1.00;;;27.10;72.80;;;;;;4961829;28;20472;-88
2022/06/11 12:07:32;;;;;;;0.60;0.60;;;26.70;71.80;;;;;;4961936;28;20453;-86
2022/06/11 12:10:14;;;;;;;0.87;0.60;;;26.40;76.60;;;;;;4958828;28;20526;-87
2022/06/11 12:12:44;;;;;;;1.30;0.77;;;26.30;73.10;;;;;;4962323;28;20464;-87
2022/06/11 12:15:19;;;;;;;0.90;0.70;;;26.30;75.50;;;;;;4962302;28;20558;-86
2022/06/11 12:17:51;;;;;;;0.50;0.43;;;26.40;76.20;;;;;;4954691;28;20606;-87
2022/06/11 12:20:33;;;;;;;0.80;0.80;;;26.30;74.50;;;;;;4959293;28;20484;-87
2022/06/11 12:23:08;;;;;;;0.50;0.50;;;25.80;75.40;;;;;;4958195;28;20501;-86
2022/06/11 12:25:40;;;;;;;1.00;0.70;;;25.40;76.20;;;;;;4962060;28;20464;-88
2022/06/11 12:28:09;;;;;;;0.60;0.60;;;25.20;78.30;;;;;;4962250;28;20468;-87
2022/06/11 12:30:36;;;;;;;0.70;0.50;;;25.10;81.70;;;;;;4959976;28;20487;-86
2022/06/11 12:33:07;;;;;;;0.60;0.60;;;24.80;81.10;;;;;;4963002;28;20468;-86
2022/06/11 12:35:45;;;;;;;0.60;0.60;;;24.80;82.20;;;;;;4954176;28;20792;-86
2022/06/11 12:38:20;;;;;;;0.60;0.60;;;25.20;87.20;;;;;;4956439;28;20468;-87
2022/06/11 12:40:53;;;;;;;0.63;0.63;;;25.70;79.50;;;;;;4958804;28;20563;-87
2022/06/11 12:43:36;;;;;;;0.50;0.50;;;25.70;74.90;;;;;;4959683;28;20510;-87
2022/06/11 12:46:11;;;;;;;0.60;0.50;;;25.80;74.20;;;;;;4950967;28;20976;-85
2022/06/11 12:48:49;;;;;;;1.90;0.50;;;25.50;73.90;;;;;;4959035;28;20533;-86
2022/06/11 12:51:23;;;;;;;1.47;0.60;;;25.60;72.40;;;;;;4960923;28;20464;-86
2022/06/11 12:53:59;;;;;;;1.50;0.80;;;25.40;74.50;;;;;;4957343;28;21249;-86
2022/06/11 12:56:59;;;;;;;0.80;0.70;;;25.40;74.90;;;;;;4976893;28;20495;-86
2022/06/11 12:59:56;;;;;;;1.83;0.67;;;25.50;76.50;;;;;;4953770;28;20476;-87
2022/06/11 13:02:32;;;;;;;0.50;0.50;;;26.00;73.90;;;;;;4958109;28;20473;-86
2022/06/11 13:05:27;;;;;;;0.70;0.70;;;25.60;72.10;;;;;;4957100;28;21011;-87
2022/06/11 13:08:04;;;;;;;0.60;0.60;;;25.50;73.60;;;;;;4960164;28;20530;-86
2022/06/11 13:10:40;;;;;;;0.60;0.50;;;25.70;72.20;;;;;;4960402;28;20491;-87
2022/06/11 13:13:55;;;;;;;0.70;0.40;;;25.70;64.30;;;;;;4958222;28;20475;-88
2022/06/11 13:16:32;;;;;;;1.10;0.60;;;25.50;72.00;;;;;;4881833;29;20613;-87